Mica, Washington
Current Conditions -  °F | °C
As of 6:53 AM on Monday 22 Dec 2014 (Local Time) from KSFF Reporting Station
Broken Clouds Broken Clouds  
Wind Chill: 33°   Ceiling: 9000
Heat Index: 33°   Visibility: 10mi
Dew Point: 30°   Wind: 0mph
Humidity: 89%   Direction: NA
Pressure: 30.06"   Gusts: NA
Location:  47.56°N, 117.21°W
Report Text: KSFF 221453Z 00000KT 10SM BKN090 01/M01 A3006 RMK AO2 SLP190 I3001 T00061011 53013
Loading
Personal Weather Stations






























Interactive Weather Map New forecast layout! Learn more

10-Day Weather Forecast

Advertisements
Track Severe Weather on mobile